createdAt,value
2022-07-29T00:01:19.509Z,22.62
2022-07-29T00:03:46.520Z,22.60
2022-07-29T00:06:13.351Z,22.49
2022-07-29T00:08:39.990Z,22.45
2022-07-29T00:11:06.660Z,22.44
2022-07-29T00:13:33.436Z,21.84
2022-07-29T00:16:04.376Z,22.37
2022-07-29T00:18:32.563Z,22.35
2022-07-29T00:20:59.227Z,22.24
2022-07-29T00:23:26.171Z,22.07
2022-07-29T00:25:52.827Z,21.91
2022-07-29T00:28:19.652Z,21.61
2022-07-29T00:30:46.323Z,21.65
2022-07-29T00:33:13.010Z,21.68
2022-07-29T00:35:45.247Z,21.59
2022-07-29T00:38:17.674Z,21.51
2022-07-29T00:40:45.130Z,21.43
2022-07-29T00:43:13.991Z,21.39
2022-07-29T00:45:44.241Z,21.33
2022-07-29T00:48:11.450Z,21.05
2022-07-29T00:50:38.905Z,21.17
2022-07-29T00:53:08.177Z,21.12
2022-07-29T00:55:35.567Z,21.06
2022-07-29T00:58:02.555Z,20.88
2022-07-29T01:00:30.280Z,20.96
2022-07-29T01:02:57.436Z,21.04
2022-07-29T01:05:50.289Z,21.13
2022-07-29T01:08:16.314Z,21.21
2022-07-29T01:10:45.068Z,21.21
2022-07-29T01:13:16.920Z,21.20
2022-07-29T01:16:00.046Z,21.23
2022-07-29T01:18:40.317Z,21.10
2022-07-29T01:21:49.876Z,21.16
2022-07-29T01:24:28.414Z,21.19
2022-07-29T01:27:15.719Z,21.20
2022-07-29T01:29:56.253Z,21.30
2022-07-29T01:32:29.587Z,21.25
2022-07-29T01:35:37.420Z,21.28
2022-07-29T01:38:23.095Z,21.32
2022-07-29T01:40:57.363Z,21.31
2022-07-29T01:43:42.889Z,21.10
2022-07-29T01:46:15.761Z,21.13
2022-07-29T01:48:54.176Z,20.76
2022-07-29T01:51:28.156Z,21.08
2022-07-29T01:54:11.462Z,20.95
2022-07-29T01:56:39.947Z,20.94
2022-07-29T01:59:09.297Z,21.07
2022-07-29T02:01:38.437Z,21.08
2022-07-29T02:04:07.559Z,20.74
2022-07-29T02:06:38.257Z,21.11
2022-07-29T02:09:07.233Z,21.01
2022-07-29T02:11:38.539Z,20.97
2022-07-29T02:14:06.227Z,20.97
2022-07-29T02:16:36.907Z,20.94
2022-07-29T02:19:04.302Z,21.02
2022-07-29T02:21:33.136Z,21.10
2022-07-29T02:24:02.424Z,21.09
2022-07-29T02:26:31.330Z,21.11
2022-07-29T02:29:00.035Z,21.14
2022-07-29T02:31:30.869Z,21.19
2022-07-29T02:33:58.546Z,21.06
2022-07-29T02:36:32.707Z,20.99
2022-07-29T02:39:01.619Z,20.96
2022-07-29T02:42:02.435Z,20.95
2022-07-29T02:44:34.411Z,20.90
2022-07-29T02:47:24.948Z,20.96
2022-07-29T02:50:00.835Z,20.80
2022-07-29T02:53:00.026Z,20.71
2022-07-29T02:55:45.771Z,20.53
2022-07-29T02:58:30.615Z,20.57
2022-07-29T03:01:08.701Z,20.44
2022-07-29T03:03:38.621Z,20.57
2022-07-29T03:06:07.385Z,20.50
2022-07-29T03:08:35.807Z,20.66
2022-07-29T03:11:02.995Z,20.80
2022-07-29T03:13:31.071Z,20.91
2022-07-29T03:15:59.679Z,20.84
2022-07-29T03:18:27.119Z,20.85
2022-07-29T03:20:53.867Z,20.85
2022-07-29T03:23:23.600Z,20.84
2022-07-29T03:25:51.258Z,20.77
2022-07-29T03:28:17.941Z,20.57
2022-07-29T03:30:46.504Z,20.51
2022-07-29T03:33:13.889Z,20.58
2022-07-29T03:35:40.934Z,20.47
2022-07-29T03:38:10.362Z,20.37
2022-07-29T03:40:52.496Z,20.44
2022-07-29T03:43:20.644Z,20.33
2022-07-29T03:45:51.948Z,20.22
2022-07-29T03:48:21.843Z,20.25
2022-07-29T03:50:50.312Z,20.16
2022-07-29T03:53:17.262Z,20.20
2022-07-29T03:55:47.932Z,20.16
2022-07-29T03:58:16.152Z,20.14
2022-07-29T04:00:44.016Z,20.00
2022-07-29T04:03:11.798Z,20.01
2022-07-29T04:05:38.698Z,19.70
2022-07-29T04:08:05.708Z,19.89
2022-07-29T04:10:34.098Z,19.84
2022-07-29T04:13:02.680Z,20.07
2022-07-29T04:15:31.009Z,19.90
2022-07-29T04:17:57.922Z,20.15
2022-07-29T04:20:24.620Z,20.00
2022-07-29T04:22:51.249Z,20.15
2022-07-29T04:25:18.219Z,20.00
2022-07-29T04:28:01.049Z,20.18
2022-07-29T04:30:28.284Z,20.21
2022-07-29T04:32:54.910Z,20.08
2022-07-29T04:35:21.869Z,20.11
2022-07-29T04:37:48.534Z,20.09
2022-07-29T04:40:15.754Z,20.08
2022-07-29T04:42:46.350Z,20.14
2022-07-29T04:45:13.892Z,20.04
2022-07-29T04:47:40.870Z,20.03
2022-07-29T04:50:09.121Z,20.06
2022-07-29T04:52:36.216Z,20.18
2022-07-29T04:55:04.326Z,20.04
2022-07-29T04:57:31.173Z,20.33
2022-07-29T04:59:58.050Z,20.40
2022-07-29T05:02:24.925Z,20.36
2022-07-29T05:04:51.668Z,20.38
2022-07-29T05:07:18.379Z,20.29
2022-07-29T05:09:45.218Z,20.14
2022-07-29T05:12:14.637Z,20.13
2022-07-29T05:14:41.334Z,20.26
2022-07-29T05:17:08.080Z,20.53
2022-07-29T05:19:34.750Z,20.58
2022-07-29T05:22:06.473Z,20.63
2022-07-29T05:24:33.129Z,21.19
2022-07-29T05:26:59.878Z,21.64
2022-07-29T05:29:42.896Z,21.77
2022-07-29T05:32:12.125Z,22.01
2022-07-29T05:34:50.854Z,22.25
2022-07-29T05:37:20.324Z,22.31
2022-07-29T05:39:50.708Z,22.28
2022-07-29T05:42:25.581Z,22.23
2022-07-29T05:44:52.547Z,22.21
2022-07-29T05:47:19.235Z,22.40
2022-07-29T05:49:46.249Z,22.44
2022-07-29T05:52:14.156Z,22.50
2022-07-29T05:54:40.869Z,22.41
2022-07-29T05:57:07.961Z,22.32
2022-07-29T05:59:38.298Z,22.39
2022-07-29T06:02:06.055Z,22.38
2022-07-29T06:04:34.498Z,22.40
2022-07-29T06:07:01.445Z,22.16
2022-07-29T06:09:29.321Z,22.27
2022-07-29T06:11:56.129Z,22.54
2022-07-29T06:14:22.770Z,22.19
2022-07-29T06:16:49.594Z,22.40
2022-07-29T06:19:16.793Z,22.33
2022-07-29T06:21:44.485Z,22.37
2022-07-29T06:24:16.060Z,22.30
2022-07-29T06:26:43.521Z,22.34
2022-07-29T06:29:14.428Z,22.32
2022-07-29T06:31:41.124Z,22.41
2022-07-29T06:34:08.103Z,22.45
2022-07-29T06:36:38.395Z,22.65
2022-07-29T06:39:29.357Z,22.75
2022-07-29T06:41:55.963Z,22.77
2022-07-29T06:44:25.634Z,22.79
2022-07-29T06:46:52.622Z,22.92
2022-07-29T06:49:19.476Z,22.78
2022-07-29T06:51:46.208Z,22.97
2022-07-29T06:54:13.002Z,23.06
2022-07-29T06:56:42.517Z,23.35
2022-07-29T06:59:10.833Z,23.57
2022-07-29T07:01:42.121Z,23.68
2022-07-29T07:04:11.563Z,23.84
2022-07-29T07:06:38.803Z,23.92
2022-07-29T07:09:05.807Z,24.62
2022-07-29T07:11:32.624Z,24.87
2022-07-29T07:14:03.600Z,24.72
2022-07-29T07:16:32.253Z,24.78
2022-07-29T07:18:59.082Z,24.77
2022-07-29T07:21:25.833Z,24.94
2022-07-29T07:23:52.583Z,25.25
2022-07-29T07:26:19.275Z,25.41
2022-07-29T07:28:46.021Z,25.39
2022-07-29T07:31:13.135Z,25.69
2022-07-29T07:33:39.920Z,25.74
2022-07-29T07:36:06.659Z,25.84
2022-07-29T07:38:33.455Z,26.04
2022-07-29T07:41:01.118Z,25.64
2022-07-29T07:43:27.912Z,25.68
2022-07-29T07:45:54.714Z,24.94
2022-07-29T07:48:21.501Z,25.24
2022-07-29T07:50:50.349Z,25.01
2022-07-29T07:53:17.208Z,25.02
2022-07-29T07:56:09.472Z,25.05
2022-07-29T07:58:31.461Z,25.77
2022-07-29T08:00:58.256Z,26.34
2022-07-29T08:03:25.025Z,26.33
2022-07-29T08:05:52.746Z,26.60
2022-07-29T08:08:19.707Z,27.24
2022-07-29T08:11:00.635Z,27.48
2022-07-29T08:13:31.089Z,27.59
2022-07-29T08:16:18.382Z,27.89
2022-07-29T08:18:46.922Z,27.88
2022-07-29T08:21:15.924Z,27.16
2022-07-29T08:23:58.964Z,26.43
2022-07-29T08:26:26.643Z,25.87
2022-07-29T08:28:53.431Z,26.22
2022-07-29T08:31:20.249Z,27.18
2022-07-29T08:33:47.018Z,27.85
2022-07-29T08:36:14.093Z,28.39
2022-07-29T08:38:40.933Z,28.94
2022-07-29T08:41:07.683Z,29.38
2022-07-29T08:43:38.159Z,29.57
2022-07-29T08:46:04.918Z,29.22
2022-07-29T08:48:32.674Z,28.93
2022-07-29T08:51:01.021Z,28.84
2022-07-29T08:53:29.905Z,28.53
2022-07-29T08:55:58.001Z,28.45
2022-07-29T08:58:25.967Z,28.39
2022-07-29T09:00:56.355Z,28.23
2022-07-29T09:03:34.504Z,28.20
2022-07-29T09:06:02.642Z,28.50
2022-07-29T09:08:29.577Z,28.90
2022-07-29T09:11:00.956Z,29.41
2022-07-29T09:13:30.799Z,29.40
2022-07-29T09:15:57.641Z,29.14
2022-07-29T09:18:36.928Z,29.48
2022-07-29T09:21:24.335Z,29.46
2022-07-29T09:24:15.163Z,29.05
2022-07-29T09:26:44.826Z,29.77
2022-07-29T09:29:19.386Z,29.69
2022-07-29T09:31:49.600Z,30.21
2022-07-29T09:34:21.694Z,30.19
2022-07-29T09:36:51.005Z,29.63
2022-07-29T09:39:30.696Z,29.12
2022-07-29T09:41:58.998Z,28.46
2022-07-29T09:44:27.193Z,28.14
2022-07-29T09:47:08.141Z,28.44
2022-07-29T09:49:36.484Z,28.59
2022-07-29T09:52:09.814Z,29.20
2022-07-29T09:54:40.078Z,29.67
2022-07-29T09:57:25.237Z,29.57
2022-07-29T09:59:59.555Z,30.11
2022-07-29T10:02:35.185Z,30.59
2022-07-29T10:05:04.132Z,30.42
2022-07-29T10:07:54.453Z,30.77
2022-07-29T10:10:28.258Z,31.11
2022-07-29T10:13:06.172Z,31.50
2022-07-29T10:15:41.739Z,31.43
2022-07-29T10:18:09.673Z,30.84
2022-07-29T10:20:36.819Z,30.14
2022-07-29T10:23:04.095Z,30.63
2022-07-29T10:25:31.592Z,30.74
2022-07-29T10:27:58.645Z,31.26
2022-07-29T10:30:27.092Z,31.63
2022-07-29T10:33:31.255Z,30.95
2022-07-29T10:36:03.858Z,30.39
2022-07-29T10:38:54.611Z,30.19
2022-07-29T10:41:27.245Z,30.09
2022-07-29T10:44:00.568Z,29.78
2022-07-29T10:46:28.875Z,30.04
2022-07-29T10:49:05.363Z,30.48
2022-07-29T10:51:53.549Z,31.01
2022-07-29T10:54:42.498Z,30.80
2022-07-29T10:57:54.014Z,30.96
2022-07-29T11:00:16.852Z,31.11
2022-07-29T11:02:45.812Z,30.91
2022-07-29T11:05:55.209Z,30.97
2022-07-29T11:08:28.008Z,31.07
2022-07-29T11:11:22.136Z,31.64
2022-07-29T11:13:55.712Z,31.38
2022-07-29T11:16:25.126Z,31.82
2022-07-29T11:19:14.025Z,32.51
2022-07-29T11:22:01.324Z,31.92
2022-07-29T11:24:35.522Z,32.40
2022-07-29T11:27:18.019Z,32.33
2022-07-29T11:29:54.102Z,32.30
2022-07-29T11:32:23.231Z,32.73
2022-07-29T11:41:18.888Z,32.30
2022-07-29T11:43:48.377Z,32.42
2022-07-29T11:46:39.538Z,32.68
2022-07-29T11:49:09.257Z,32.90
2022-07-29T11:51:48.593Z,33.06
2022-07-29T11:54:27.509Z,32.32
2022-07-29T11:57:10.443Z,32.06
2022-07-29T11:59:45.484Z,32.06
2022-07-29T12:02:37.276Z,31.46
2022-07-29T12:05:36.193Z,31.31
2022-07-29T12:08:19.964Z,31.03
2022-07-29T12:10:48.996Z,31.50
2022-07-29T12:13:17.400Z,32.24
2022-07-29T12:15:57.733Z,31.74
2022-07-29T12:18:27.781Z,32.74
2022-07-29T12:21:04.639Z,32.41
2022-07-29T12:23:34.350Z,32.18
2022-07-29T12:26:07.701Z,31.43
2022-07-29T12:28:39.721Z,31.24
2022-07-29T12:31:42.418Z,31.66
2022-07-29T12:34:03.177Z,31.72
2022-07-29T12:36:30.167Z,31.59
2022-07-29T12:38:57.014Z,31.41
2022-07-29T12:41:23.842Z,31.65
2022-07-29T12:43:56.561Z,31.16
2022-07-29T12:46:42.016Z,31.04
2022-07-29T12:49:09.021Z,30.98
2022-07-29T12:51:40.126Z,30.59
2022-07-29T12:54:12.150Z,30.95
2022-07-29T12:56:44.556Z,31.35
2022-07-29T12:59:15.876Z,31.35
2022-07-29T13:01:42.648Z,31.43
2022-07-29T13:04:09.304Z,31.18
2022-07-29T13:06:46.124Z,31.17
2022-07-29T13:09:23.441Z,31.04
2022-07-29T13:11:53.173Z,31.00
2022-07-29T13:14:47.031Z,30.98
2022-07-29T13:17:15.022Z,30.80
2022-07-29T13:19:45.883Z,30.80
2022-07-29T13:22:15.978Z,30.62
2022-07-29T13:24:50.215Z,30.78
2022-07-29T13:27:18.817Z,30.82
2022-07-29T13:29:45.708Z,30.94
2022-07-29T13:32:13.163Z,31.00
2022-07-29T13:34:40.576Z,31.20
2022-07-29T13:37:07.295Z,31.17
2022-07-29T13:39:34.083Z,30.91
2022-07-29T13:42:11.065Z,30.80
2022-07-29T13:44:38.037Z,30.78
2022-07-29T13:47:04.805Z,30.81
2022-07-29T13:49:31.497Z,30.63
2022-07-29T13:51:58.639Z,30.45
2022-07-29T13:54:25.592Z,30.21
2022-07-29T13:56:54.167Z,30.28
2022-07-29T13:59:21.112Z,30.30
2022-07-29T14:01:48.858Z,29.87
2022-07-29T14:04:16.378Z,29.86
2022-07-29T14:06:43.309Z,29.92
2022-07-29T14:09:10.653Z,29.87
2022-07-29T14:11:39.401Z,29.87
2022-07-29T14:14:06.202Z,29.76
2022-07-29T14:16:39.236Z,29.98
2022-07-29T14:19:09.350Z,29.95
2022-07-29T14:21:36.148Z,30.05
2022-07-29T14:24:04.297Z,29.92
2022-07-29T14:26:46.351Z,30.06
2022-07-29T14:29:13.486Z,30.27
2022-07-29T14:31:40.254Z,30.06
2022-07-29T14:34:07.000Z,29.81
2022-07-29T14:36:33.723Z,29.86
2022-07-29T14:39:00.539Z,30.14
2022-07-29T14:41:29.137Z,30.31
2022-07-29T14:43:55.911Z,30.18
2022-07-29T14:46:37.834Z,30.13
2022-07-29T14:49:04.672Z,30.34
2022-07-29T14:51:33.965Z,30.62
2022-07-29T14:54:00.965Z,30.64
2022-07-29T14:56:37.349Z,30.74
2022-07-29T14:59:04.826Z,30.71
2022-07-29T15:01:31.554Z,30.51
2022-07-29T15:03:59.901Z,30.42
2022-07-29T15:06:27.480Z,30.40
2022-07-29T15:08:54.806Z,30.41
2022-07-29T15:11:21.611Z,30.36
2022-07-29T15:13:48.293Z,30.09
2022-07-29T15:16:15.114Z,29.89
2022-07-29T15:18:42.529Z,29.84
2022-07-29T15:21:13.123Z,30.07
2022-07-29T15:23:39.946Z,29.91
2022-07-29T15:26:06.685Z,29.88
2022-07-29T15:28:33.393Z,30.04
2022-07-29T15:31:00.106Z,29.82
2022-07-29T15:33:26.868Z,29.88
2022-07-29T15:35:53.530Z,29.79
2022-07-29T15:38:20.447Z,29.47
2022-07-29T15:40:55.633Z,29.49
2022-07-29T15:43:22.631Z,29.65
2022-07-29T15:46:08.123Z,30.14
2022-07-29T15:48:38.870Z,29.85
2022-07-29T15:51:05.725Z,29.66
2022-07-29T15:53:32.419Z,29.80
2022-07-29T15:56:02.105Z,29.56
2022-07-29T15:58:28.957Z,29.70
2022-07-29T16:00:56.164Z,29.92
2022-07-29T16:03:22.945Z,30.04
2022-07-29T16:05:49.743Z,30.26
2022-07-29T16:08:16.416Z,30.23
2022-07-29T16:10:43.212Z,30.53
2022-07-29T16:13:09.991Z,30.83
2022-07-29T16:15:36.746Z,30.58
2022-07-29T16:18:03.588Z,31.50
2022-07-29T16:20:30.322Z,31.37
2022-07-29T16:22:57.173Z,30.81
2022-07-29T16:25:38.462Z,30.18
2022-07-29T16:28:11.005Z,30.67
2022-07-29T16:30:37.904Z,31.14
2022-07-29T16:33:08.250Z,31.39
2022-07-29T16:35:39.762Z,31.81
2022-07-29T16:38:06.833Z,32.69
2022-07-29T16:40:33.603Z,33.24
2022-07-29T16:43:00.263Z,33.96
2022-07-29T16:45:30.916Z,34.14
2022-07-29T16:48:05.061Z,33.47
2022-07-29T16:50:33.373Z,33.18
2022-07-29T16:53:00.162Z,32.35
2022-07-29T16:55:26.944Z,31.17
2022-07-29T16:57:53.660Z,30.51
2022-07-29T17:00:22.350Z,29.93
2022-07-29T17:02:49.549Z,29.48
2022-07-29T17:05:16.344Z,29.33
2022-07-29T17:07:43.157Z,29.40
2022-07-29T17:10:10.208Z,29.58
2022-07-29T17:12:40.999Z,29.64
2022-07-29T17:15:10.703Z,29.18
2022-07-29T17:17:38.742Z,29.07
2022-07-29T17:20:21.546Z,29.11
2022-07-29T17:22:48.474Z,29.03
2022-07-29T17:25:20.305Z,28.89
2022-07-29T17:27:50.720Z,28.74
2022-07-29T17:30:18.241Z,28.48
2022-07-29T17:32:44.894Z,28.52
2022-07-29T17:35:50.482Z,28.62
2022-07-29T17:38:17.243Z,28.52
2022-07-29T17:40:44.012Z,28.61
2022-07-29T17:43:10.763Z,28.51
2022-07-29T17:45:49.973Z,28.29
2022-07-29T17:48:18.226Z,28.35
2022-07-29T17:50:45.624Z,28.35
2022-07-29T17:53:16.311Z,28.45
2022-07-29T17:55:48.503Z,28.47
2022-07-29T17:58:16.016Z,28.49
2022-07-29T18:00:43.181Z,28.41
2022-07-29T18:03:10.464Z,28.06
2022-07-29T18:05:37.313Z,27.90
2022-07-29T18:08:04.314Z,27.52
2022-07-29T18:10:31.287Z,27.31
2022-07-29T18:12:58.082Z,27.18
2022-07-29T18:15:27.876Z,26.97
2022-07-29T18:17:57.545Z,26.84
2022-07-29T18:20:28.001Z,26.62
2022-07-29T18:22:55.033Z,26.41
2022-07-29T18:25:22.108Z,26.39
2022-07-29T18:27:48.886Z,26.36
2022-07-29T18:30:15.918Z,26.17
2022-07-29T18:32:59.249Z,25.96
2022-07-29T18:35:30.420Z,25.91
2022-07-29T18:38:01.819Z,25.69
2022-07-29T18:40:29.860Z,25.42
2022-07-29T18:42:56.639Z,25.39
2022-07-29T18:45:23.459Z,25.24
2022-07-29T18:47:56.659Z,25.28
2022-07-29T18:50:28.800Z,25.25
2022-07-29T18:52:58.541Z,25.03
2022-07-29T18:55:26.463Z,24.99
2022-07-29T18:57:55.832Z,24.93
2022-07-29T19:00:24.291Z,24.72
2022-07-29T19:02:51.694Z,24.72
2022-07-29T19:05:18.673Z,24.38
2022-07-29T19:07:45.590Z,24.27
2022-07-29T19:10:13.643Z,24.51
2022-07-29T19:12:40.698Z,24.34
2022-07-29T19:15:08.431Z,24.38
2022-07-29T19:17:35.424Z,24.36
2022-07-29T19:20:02.714Z,24.00
2022-07-29T19:22:29.583Z,24.35
2022-07-29T19:24:56.479Z,24.08
2022-07-29T19:27:23.396Z,23.93
2022-07-29T19:29:50.233Z,24.12
2022-07-29T19:32:25.059Z,23.68
2022-07-29T19:35:11.163Z,24.02
2022-07-29T19:37:42.601Z,24.05
2022-07-29T19:40:12.087Z,23.29
2022-07-29T19:42:41.088Z,24.02
2022-07-29T19:45:08.420Z,23.96
2022-07-29T19:47:35.557Z,23.68
2022-07-29T19:50:03.753Z,23.90
2022-07-29T19:52:31.555Z,22.97
2022-07-29T19:54:58.734Z,23.76
2022-07-29T19:57:25.667Z,23.71
2022-07-29T19:59:53.148Z,23.28
2022-07-29T20:02:20.206Z,23.64
2022-07-29T20:04:47.524Z,23.72
2022-07-29T20:07:16.616Z,23.33
2022-07-29T20:09:44.525Z,23.32
2022-07-29T20:12:12.214Z,23.28
2022-07-29T20:14:46.531Z,21.63
2022-07-29T20:17:13.466Z,22.09
2022-07-29T20:19:40.359Z,23.17
2022-07-29T20:22:07.088Z,23.13
2022-07-29T20:24:33.814Z,23.11
2022-07-29T20:27:00.904Z,23.13
2022-07-29T20:29:27.924Z,22.91
2022-07-29T20:31:56.359Z,22.83
2022-07-29T20:34:23.463Z,22.96
2022-07-29T20:36:50.125Z,22.95
2022-07-29T20:39:16.845Z,23.12
2022-07-29T20:41:44.300Z,23.22
2022-07-29T20:44:11.016Z,23.31
2022-07-29T20:46:39.245Z,23.32
2022-07-29T20:49:06.147Z,23.32
2022-07-29T20:51:43.668Z,23.37
2022-07-29T20:54:10.829Z,23.34
2022-07-29T20:56:38.108Z,23.23
2022-07-29T20:59:04.778Z,23.26
2022-07-29T21:01:31.479Z,23.02
2022-07-29T21:03:58.187Z,22.86
2022-07-29T21:06:48.160Z,22.72
2022-07-29T21:09:14.829Z,22.64
2022-07-29T21:11:44.601Z,22.69
2022-07-29T21:14:32.104Z,22.75
2022-07-29T21:16:59.065Z,22.82
2022-07-29T21:19:26.242Z,22.75
2022-07-29T21:21:53.014Z,22.81
2022-07-29T21:24:19.752Z,22.94
2022-07-29T21:26:54.538Z,22.98
2022-07-29T21:29:31.588Z,22.93
2022-07-29T21:31:58.210Z,22.70
2022-07-29T21:34:24.885Z,22.51
2022-07-29T21:36:51.566Z,22.41
2022-07-29T21:39:18.235Z,22.26
2022-07-29T21:41:44.955Z,22.34
2022-07-29T21:44:11.587Z,22.24
2022-07-29T21:46:38.350Z,22.22
2022-07-29T21:49:05.101Z,22.05
2022-07-29T21:51:31.772Z,21.94
2022-07-29T21:53:58.435Z,21.94
2022-07-29T21:56:27.522Z,21.94
2022-07-29T21:58:55.201Z,21.95
2022-07-29T22:01:21.958Z,21.85
2022-07-29T22:03:48.693Z,21.76
2022-07-29T22:06:18.277Z,21.63
2022-07-29T22:08:45.857Z,21.45
2022-07-29T22:11:13.211Z,21.41
2022-07-29T22:13:40.078Z,21.33
2022-07-29T22:16:07.176Z,21.38
2022-07-29T22:18:33.924Z,21.42
2022-07-29T22:21:00.564Z,21.41
2022-07-29T22:23:27.229Z,21.40
2022-07-29T22:25:53.915Z,21.44
2022-07-29T22:28:20.652Z,21.42
2022-07-29T22:30:47.457Z,21.34
2022-07-29T22:33:17.676Z,21.32
2022-07-29T22:35:45.524Z,21.25
2022-07-29T22:38:17.319Z,21.12
2022-07-29T22:40:44.076Z,21.48
2022-07-29T22:43:10.864Z,21.59
2022-07-29T22:45:57.836Z,21.64
2022-07-29T22:48:24.686Z,21.65
2022-07-29T22:50:51.580Z,21.46
2022-07-29T22:53:18.573Z,21.16
2022-07-29T22:55:45.438Z,20.92
2022-07-29T22:58:12.469Z,20.80
2022-07-29T23:00:39.188Z,20.75
2022-07-29T23:03:05.977Z,20.91
2022-07-29T23:05:33.396Z,20.93
2022-07-29T23:08:00.246Z,20.93
2022-07-29T23:10:27.165Z,20.79
2022-07-29T23:12:53.900Z,20.56
2022-07-29T23:15:20.750Z,20.48
2022-07-29T23:18:07.677Z,20.29
2022-07-29T23:20:34.483Z,20.15
2022-07-29T23:23:01.183Z,20.00
2022-07-29T23:25:27.926Z,20.04
2022-07-29T23:27:54.604Z,20.01
2022-07-29T23:30:21.316Z,19.96
2022-07-29T23:32:47.989Z,19.24
2022-07-29T23:35:14.681Z,19.66
2022-07-29T23:37:41.513Z,19.83
2022-07-29T23:40:13.944Z,19.71
2022-07-29T23:42:42.211Z,19.20
2022-07-29T23:45:10.119Z,19.11
2022-07-29T23:47:36.788Z,19.31
2022-07-29T23:50:05.014Z,19.31
2022-07-29T23:52:31.765Z,19.22
2022-07-29T23:55:36.560Z,19.23
2022-07-29T23:57:45.069Z,19.24
